Time;durP1;ratioP1;P1;durP2;ratioP2;P2;SDS_P1;SDS_P2;PMS_P1;PMS_P2;Temp;Humidity;BMP_temperature;BMP_pressure;BME280_temperature;BME280_humidity;BME280_pressure;Samples;Min_cycle;Max_cycle;Signal;HPM_P1;HPM_P2
2022/03/25 00:00:36;;;;;;;14.47;8.40;;;;;;;7.22;43.70;99881.59;5093884;28;42212;-74
2022/03/25 00:03:04;;;;;;;21.50;10.97;;;;;;;7.09;43.50;99859.19;5084743;27;39900;-76
2022/03/25 00:05:32;;;;;;;16.20;8.73;;;;;;;7.11;43.32;99873.19;5113400;27;41317;-74
2022/03/25 00:08:00;;;;;;;16.77;8.60;;;;;;;7.03;43.44;99870.81;5116519;27;42004;-75
2022/03/25 00:10:27;;;;;;;13.97;7.47;;;;;;;7.06;43.41;99886.50;5114079;27;41315;-75
2022/03/25 00:12:55;;;;;;;17.93;10.23;;;;;;;6.90;43.49;99868.63;5113743;27;40116;-75
2022/03/25 00:15:23;;;;;;;17.23;10.33;;;;;;;6.99;43.40;99892.03;5114180;27;41785;-77
2022/03/25 00:17:51;;;;;;;13.43;8.07;;;;;;;6.82;43.54;99861.81;5097037;27;41983;-74
2022/03/25 00:20:19;;;;;;;17.57;9.20;;;;;;;6.87;43.92;99881.88;5108918;27;41205;-75
2022/03/25 00:22:47;;;;;;;16.60;10.00;;;;;;;6.86;44.03;99883.63;5094367;28;41924;-76
2022/03/25 00:25:15;;;;;;;19.73;10.90;;;;;;;6.82;44.80;99877.59;5076509;28;40306;-74
2022/03/25 00:27:42;;;;;;;20.17;10.87;;;;;;;6.79;44.27;99877.72;5076176;28;44568;-74
2022/03/25 00:30:11;;;;;;;18.77;10.73;;;;;;;6.75;44.19;99875.22;5093512;28;43201;-74
2022/03/25 00:32:40;;;;;;;23.80;12.57;;;;;;;6.72;44.67;99875.28;5111185;28;41014;-75
2022/03/25 00:35:12;;;;;;;21.17;11.97;;;;;;;6.70;46.83;99867.44;5108336;28;41525;-74
2022/03/25 00:37:40;;;;;;;20.50;10.67;;;;;;;6.65;46.57;99863.25;5076280;28;41881;-76
2022/03/25 00:40:09;;;;;;;16.83;9.27;;;;;;;6.68;46.83;99871.03;5093245;28;42384;-74
2022/03/25 00:42:37;;;;;;;16.93;10.00;;;;;;;6.66;47.55;99860.56;5089921;27;41334;-74
2022/03/25 00:45:07;;;;;;;18.23;9.93;;;;;;;6.62;47.14;99856.31;5096597;27;41297;-74
2022/03/25 00:47:37;;;;;;;21.33;12.33;;;;;;;6.61;47.29;99873.00;5096209;27;41725;-73
2022/03/25 00:50:05;;;;;;;19.40;9.87;;;;;;;6.59;47.62;99858.16;5096137;27;40575;-74
2022/03/25 00:52:35;;;;;;;16.13;10.03;;;;;;;6.56;47.44;99872.25;5096461;27;39935;-74
2022/03/25 00:55:03;;;;;;;19.03;10.47;;;;;;;6.53;47.19;99874.16;5113655;27;42617;-76
2022/03/25 00:57:30;;;;;;;13.10;8.10;;;;;;;6.49;47.70;99868.09;5115891;27;42173;-76
2022/03/25 00:59:58;;;;;;;18.77;9.97;;;;;;;6.46;47.22;99868.19;5117286;27;42412;-75
2022/03/25 01:02:26;;;;;;;16.13;10.43;;;;;;;6.42;47.08;99874.47;5099760;27;41212;-74
2022/03/25 01:04:53;;;;;;;19.00;9.83;;;;;;;6.37;46.90;99874.59;5117094;27;42665;-74
2022/03/25 01:07:21;;;;;;;13.27;7.73;;;;;;;6.34;47.08;99871.19;5116816;27;43589;-75
2022/03/25 01:09:51;;;;;;;14.47;7.83;;;;;;;6.30;48.39;99866.94;5099838;27;42455;-74
2022/03/25 01:12:19;;;;;;;16.73;10.60;;;;;;;6.27;49.41;99861.75;5116676;27;40903;-75
2022/03/25 01:14:47;;;;;;;15.17;9.13;;;;;;;6.22;48.84;99864.50;5099996;27;41752;-74
2022/03/25 01:17:16;;;;;;;18.00;9.80;;;;;;;6.11;48.75;99848.16;5099885;27;41850;-73
2022/03/25 01:19:44;;;;;;;13.50;8.30;;;;;;;6.16;50.11;99855.94;5135010;27;42388;-74
2022/03/25 01:22:12;;;;;;;16.70;9.57;;;;;;;6.14;51.17;99845.47;5116610;27;41746;-74
2022/03/25 01:24:39;;;;;;;19.50;10.50;;;;;;;6.06;49.64;99843.03;5116811;27;40570;-74
2022/03/25 01:27:09;;;;;;;15.17;9.43;;;;;;;6.09;49.09;99850.84;5116743;27;42840;-74
2022/03/25 01:29:37;;;;;;;14.73;8.67;;;;;;;6.06;48.72;99853.53;5108717;28;42619;-76
2022/03/25 01:32:06;;;;;;;18.97;10.67;;;;;;;6.02;48.93;99851.94;5079272;28;39940;-74
2022/03/25 01:34:34;;;;;;;14.33;8.20;;;;;;;5.99;48.65;99854.63;5106184;27;41765;-75
2022/03/25 01:37:02;;;;;;;13.33;7.83;;;;;;;5.84;48.24;99839.25;5116632;27;43737;-75
2022/03/25 01:39:30;;;;;;;12.50;7.50;;;;;;;5.88;48.83;99850.56;5099488;27;41324;-75
2022/03/25 01:41:59;;;;;;;14.90;7.80;;;;;;;5.73;49.83;99822.91;5115950;27;42400;-74
2022/03/25 01:44:30;;;;;;;13.03;8.27;;;;;;;5.83;50.37;99848.03;5116565;27;41921;-75
2022/03/25 01:47:00;;;;;;;15.23;9.70;;;;;;;5.80;49.68;99847.28;5116468;27;42533;-74
2022/03/25 01:49:28;;;;;;;14.83;8.33;;;;;;;5.77;49.99;99850.84;5098842;27;42415;-74
2022/03/25 01:52:00;;;;;;;17.60;9.17;;;;;;;5.74;50.92;99845.66;5116206;27;42601;-75
2022/03/25 01:54:30;;;;;;;14.20;8.53;;;;;;;5.70;50.27;99844.00;5098570;27;43588;-76
2022/03/25 01:57:01;;;;;;;15.20;9.10;;;;;;;5.64;50.07;99841.56;5133453;27;43190;-75
2022/03/25 01:59:32;;;;;;;16.30;8.67;;;;;;;5.61;49.79;99849.53;5099295;27;40953;-75
2022/03/25 02:02:02;;;;;;;12.77;8.30;;;;;;;5.57;50.03;99855.75;5115744;27;39566;-75
2022/03/25 02:04:32;;;;;;;16.83;9.10;;;;;;;5.27;49.68;99808.38;5112956;27;42605;-75
2022/03/25 02:07:01;;;;;;;12.90;8.00;;;;;;;5.38;50.13;99829.97;5115755;27;42893;-74
2022/03/25 02:09:28;;;;;;;14.77;8.33;;;;;;;5.44;50.71;99838.63;5134291;27;42287;-75
2022/03/25 02:12:00;;;;;;;13.97;8.70;;;;;;;5.29;52.14;99814.47;5115930;27;42053;-76
2022/03/25 02:14:28;;;;;;;16.83;9.17;;;;;;;5.37;51.09;99836.13;5101080;27;42065;-74
2022/03/25 02:16:59;;;;;;;16.10;8.60;;;;;;;5.30;50.82;99829.31;5115919;27;42599;-75
2022/03/25 02:19:30;;;;;;;20.93;9.93;;;;;;;5.28;50.63;99836.38;5112540;27;43307;-75
2022/03/25 02:21:59;;;;;;;13.50;7.80;;;;;;;5.24;50.49;99834.72;5134198;27;41606;-76
2022/03/25 02:24:31;;;;;;;13.20;7.93;;;;;;;5.09;50.61;99815.84;5098735;27;42066;-74
2022/03/25 02:27:00;;;;;;;14.40;7.70;;;;;;;5.19;50.56;99839.25;5115433;27;43708;-74
2022/03/25 02:29:28;;;;;;;15.37;8.90;;;;;;;5.15;50.90;99839.34;5098420;27;41077;-74
2022/03/25 02:31:55;;;;;;;16.00;8.57;;;;;;;5.13;50.74;99843.75;5115680;27;40934;-76
2022/03/25 02:34:24;;;;;;;12.73;8.27;;;;;;;5.01;51.06;99832.66;5129023;27;41362;-74
2022/03/25 02:36:51;;;;;;;12.83;8.20;;;;;;;5.07;51.84;99837.75;5119580;27;43748;-75
2022/03/25 02:39:22;;;;;;;20.37;11.50;;;;;;;5.04;51.30;99844.88;5094982;28;43221;-76
2022/03/25 02:41:51;;;;;;;17.43;9.63;;;;;;;5.01;51.07;99842.31;5102467;27;41716;-74
2022/03/25 02:44:20;;;;;;;15.60;8.30;;;;;;;4.98;51.09;99852.88;5112230;27;42734;-75
2022/03/25 02:46:48;;;;;;;13.57;8.07;;;;;;;4.95;50.83;99855.56;5115451;27;43835;-74
2022/03/25 02:49:16;;;;;;;14.97;8.47;;;;;;;4.88;50.71;99846.13;5097373;27;40858;-74
2022/03/25 02:51:43;;;;;;;10.80;7.03;;;;;;;4.76;50.76;99839.41;5115508;27;40874;-75
2022/03/25 02:54:11;;;;;;;17.10;8.73;;;;;;;4.83;51.16;99851.47;5114933;27;40683;-75
2022/03/25 02:56:40;;;;;;;15.70;8.13;;;;;;;4.73;51.12;99842.09;5133776;27;43742;-73
2022/03/25 02:59:08;;;;;;;18.37;10.77;;;;;;;4.75;51.70;99850.78;5135026;27;42311;-75
2022/03/25 03:01:36;;;;;;;15.63;8.80;;;;;;;4.72;51.86;99855.22;5120583;27;42522;-75
2022/03/25 03:04:04;;;;;;;15.33;8.47;;;;;;;4.66;52.86;99851.88;5119653;27;42067;-73
2022/03/25 03:06:31;;;;;;;15.83;9.33;;;;;;;4.48;55.65;99819.94;5120372;27;42779;-74
2022/03/25 03:08:59;;;;;;;21.80;11.33;;;;;;;4.46;54.36;99817.34;5120078;27;42645;-74
2022/03/25 03:11:27;;;;;;;18.43;9.73;;;;;;;4.58;54.22;99843.28;5120633;27;40262;-75
2022/03/25 03:13:56;;;;;;;18.10;10.03;;;;;;;4.14;53.46;99777.88;5117157;27;42095;-75
2022/03/25 03:16:25;;;;;;;15.40;9.10;;;;;;;4.51;53.12;99846.97;5114837;27;41960;-74
2022/03/25 03:18:52;;;;;;;17.63;8.97;;;;;;;4.47;53.04;99853.16;5113940;27;43241;-75
2022/03/25 03:21:24;;;;;;;17.83;10.37;;;;;;;4.44;52.69;99866.38;5115130;27;40000;-76
2022/03/25 03:23:52;;;;;;;13.70;8.80;;;;;;;4.42;52.89;99862.91;5111754;27;41717;-74
2022/03/25 03:26:20;;;;;;;15.60;9.00;;;;;;;4.39;53.31;99862.09;5097786;27;42606;-75
2022/03/25 03:28:48;;;;;;;19.00;10.20;;;;;;;4.34;53.00;99854.31;5114450;27;42985;-74
2022/03/25 03:31:17;;;;;;;16.30;9.03;;;;;;;4.33;52.83;99860.47;5097843;27;40135;-74
2022/03/25 03:33:44;;;;;;;14.73;8.70;;;;;;;4.30;53.43;99857.94;5114226;27;40583;-75
2022/03/25 03:36:12;;;;;;;15.10;8.20;;;;;;;4.19;54.22;99838.94;5110726;27;43674;-75
2022/03/25 03:38:40;;;;;;;14.30;8.40;;;;;;;3.93;53.56;99800.16;5114442;27;42433;-74
2022/03/25 03:41:08;;;;;;;17.30;9.73;;;;;;;4.22;53.56;99851.97;5086266;27;40047;-73
2022/03/25 03:43:36;;;;;;;16.67;9.13;;;;;;;4.08;53.18;99827.81;5097410;27;42906;-75
2022/03/25 03:46:03;;;;;;;17.30;9.67;;;;;;;4.13;53.77;99847.78;5114257;27;42821;-75
2022/03/25 03:48:33;;;;;;;19.70;10.40;;;;;;;4.13;53.52;99857.41;5113722;27;43318;-74
2022/03/25 03:51:01;;;;;;;14.13;8.30;;;;;;;3.99;53.25;99844.56;5131703;27;41946;-74
2022/03/25 03:53:28;;;;;;;18.40;9.90;;;;;;;3.85;53.47;99839.59;5114308;27;40636;-74
2022/03/25 03:55:56;;;;;;;22.63;11.83;;;;;;;4.01;53.40;99861.13;5132504;27;43339;-75
2022/03/25 03:58:41;;;;;;;16.07;9.17;;;;;;;3.95;53.55;99856.03;5129816;27;42542;-75
2022/03/25 04:01:10;;;;;;;19.23;10.30;;;;;;;3.93;54.46;99856.06;5114192;27;40809;-75
2022/03/25 04:03:39;;;;;;;24.80;12.27;;;;;;;3.90;54.21;99858.72;5113333;27;41188;-75
2022/03/25 04:06:07;;;;;;;18.37;10.10;;;;;;;3.86;53.79;99857.06;5113845;27;43317;-74
2022/03/25 04:08:36;;;;;;;16.27;8.57;;;;;;;3.78;54.08;99848.50;5114415;27;42308;-75
2022/03/25 04:11:04;;;;;;;15.43;9.03;;;;;;;3.83;54.52;99851.03;5096739;27;40179;-75
2022/03/25 04:13:32;;;;;;;16.07;8.87;;;;;;;3.80;54.30;99849.31;5097029;27;41805;-77
2022/03/25 04:15:59;;;;;;;13.30;8.50;;;;;;;3.79;54.05;99852.84;5114299;27;43765;-75
2022/03/25 04:18:27;;;;;;;18.53;8.77;;;;;;;3.77;55.02;99852.00;5099161;27;41339;-75
2022/03/25 04:20:57;;;;;;;17.27;8.83;;;;;;;3.76;54.73;99858.13;5096751;27;40026;-75
2022/03/25 04:23:25;;;;;;;15.60;8.90;;;;;;;3.72;54.21;99859.06;5113999;27;41748;-74
2022/03/25 04:25:52;;;;;;;14.30;8.73;;;;;;;3.58;54.11;99845.38;5096768;27;42813;-75
2022/03/25 04:28:20;;;;;;;18.27;9.80;;;;;;;3.65;54.01;99870.56;5132302;27;42268;-75
2022/03/25 04:30:48;;;;;;;14.10;8.50;;;;;;;3.63;53.89;99874.97;5113953;27;41111;-76
2022/03/25 04:33:15;;;;;;;15.67;8.63;;;;;;;3.59;54.07;99873.28;5100020;27;42490;-75
2022/03/25 04:35:43;;;;;;;19.07;10.70;;;;;;;3.46;54.33;99854.31;5117292;27;42068;-74
2022/03/25 04:38:14;;;;;;;17.67;8.93;;;;;;;3.52;54.54;99876.91;5100454;27;42290;-74
2022/03/25 04:40:43;;;;;;;18.33;9.07;;;;;;;3.46;54.59;99875.25;5100267;27;40175;-74
2022/03/25 04:43:10;;;;;;;13.87;8.73;;;;;;;3.44;54.94;99876.19;5117399;27;41843;-75
2022/03/25 04:45:38;;;;;;;16.13;9.60;;;;;;;3.41;54.65;99879.72;5115456;27;42587;-75
2022/03/25 04:48:08;;;;;;;18.20;9.90;;;;;;;3.29;54.68;99868.59;5123293;27;43329;-74
2022/03/25 04:50:36;;;;;;;14.57;8.77;;;;;;;3.36;55.15;99884.16;5099975;27;41094;-75
2022/03/25 04:53:03;;;;;;;19.33;11.33;;;;;;;3.32;54.97;99884.25;5099794;27;41719;-75
2022/03/25 04:55:32;;;;;;;16.90;9.57;;;;;;;3.28;54.89;99883.44;5116613;27;43321;-75
2022/03/25 04:58:00;;;;;;;18.80;9.47;;;;;;;3.19;54.96;99865.28;5135513;27;42232;-73
2022/03/25 05:00:28;;;;;;;18.70;11.50;;;;;;;3.28;55.97;99874.72;5100016;27;39879;-75
2022/03/25 05:02:55;;;;;;;20.60;10.17;;;;;;;3.13;56.63;99852.28;5099981;27;41442;-75
2022/03/25 05:05:23;;;;;;;22.03;11.70;;;;;;;3.24;56.21;99872.16;5135064;27;43148;-73
2022/03/25 05:07:51;;;;;;;19.00;10.73;;;;;;;3.28;56.92;99877.34;5116935;27;42440;-74
2022/03/25 05:10:19;;;;;;;24.97;11.67;;;;;;;3.25;57.48;99867.78;5116716;27;40885;-75
2022/03/25 05:12:48;;;;;;;19.63;10.30;;;;;;;3.31;57.38;99877.28;5116931;27;41936;-75
2022/03/25 05:15:16;;;;;;;20.70;10.97;;;;;;;3.32;57.36;99879.03;5134734;27;42811;-74
2022/03/25 05:17:46;;;;;;;17.87;10.30;;;;;;;3.26;56.82;99874.75;5100102;27;42281;-76
2022/03/25 05:20:15;;;;;;;17.00;9.43;;;;;;;3.33;56.67;99891.22;5134692;27;40910;-74
2022/03/25 05:22:43;;;;;;;16.67;9.47;;;;;;;3.33;57.43;99886.00;5099745;27;41888;-76
2022/03/25 05:25:11;;;;;;;17.30;9.37;;;;;;;3.34;56.77;99887.72;5116523;27;42518;-75
2022/03/25 05:27:46;;;;;;;20.10;11.50;;;;;;;3.38;58.08;99889.38;5135098;27;42307;-74
2022/03/25 05:30:17;;;;;;;21.03;11.27;;;;;;;3.42;58.00;99888.44;5116395;27;39823;-75
2022/03/25 05:32:47;;;;;;;18.27;10.43;;;;;;;3.42;57.59;99891.06;5115928;27;40409;-74
2022/03/25 05:35:15;;;;;;;19.50;11.07;;;;;;;3.45;57.36;99897.13;5133279;27;42810;-75
2022/03/25 05:37:42;;;;;;;22.87;12.50;;;;;;;3.48;56.63;99906.66;5116914;27;43129;-74
2022/03/25 05:40:12;;;;;;;17.97;9.90;;;;;;;3.51;56.44;99904.00;5116029;27;41627;-75
2022/03/25 05:42:40;;;;;;;17.23;8.60;;;;;;;3.43;56.43;99891.03;5133033;27;41800;-75
2022/03/25 05:45:10;;;;;;;14.77;8.77;;;;;;;3.57;56.10;99917.00;5133215;27;43922;-74
2022/03/25 05:47:40;;;;;;;19.73;10.83;;;;;;;3.61;56.24;99913.41;5116307;27;41217;-74
2022/03/25 05:50:11;;;;;;;17.90;10.60;;;;;;;3.65;56.04;99920.34;5115732;27;39857;-74
2022/03/25 05:52:41;;;;;;;17.43;9.77;;;;;;;3.71;55.93;99917.59;5133472;27;20247;-74
2022/03/25 05:55:09;;;;;;;15.87;8.93;;;;;;;3.77;56.05;99930.59;5115130;27;43545;-76
2022/03/25 05:57:37;;;;;;;17.70;9.67;;;;;;;3.81;55.99;99927.03;5134341;27;42490;-74
2022/03/25 06:00:08;;;;;;;21.87;10.43;;;;;;;3.82;56.48;99915.66;5098067;27;40044;-74
2022/03/25 06:02:44;;;;;;;16.37;9.67;;;;;;;3.98;55.81;99937.19;5131288;27;41639;-75
2022/03/25 06:05:13;;;;;;;14.80;9.13;;;;;;;4.05;55.66;99940.59;5115363;27;43117;-75
2022/03/25 06:07:42;;;;;;;17.00;9.20;;;;;;;4.14;55.32;99940.41;5116270;27;42222;-74
2022/03/25 06:10:11;;;;;;;16.63;9.00;;;;;;;4.09;55.09;99916.88;5134363;27;40875;-76
2022/03/25 06:12:40;;;;;;;17.07;9.30;;;;;;;4.33;55.08;99947.00;5133528;27;41560;-75
2022/03/25 06:15:09;;;;;;;18.33;9.57;;;;;;;4.42;55.08;99941.59;5114201;27;42902;-75
2022/03/25 06:17:47;;;;;;;15.13;9.13;;;;;;;4.56;55.09;99949.19;5098864;27;41572;-74
2022/03/25 06:20:18;;;;;;;20.27;10.97;;;;;;;4.66;55.01;99946.34;5114415;27;41958;-74
2022/03/25 06:22:48;;;;;;;15.97;10.03;;;;;;;4.69;54.74;99941.03;5107707;27;42477;-80
2022/03/25 06:25:16;;;;;;;19.73;11.87;;;;;;;4.90;55.09;99951.94;5092909;27;42879;-79
2022/03/25 06:27:48;;;;;;;18.60;10.80;;;;;;;5.05;54.64;99951.59;5132692;27;42278;-82
2022/03/25 06:30:16;;;;;;;19.07;11.13;;;;;;;5.27;55.02;99950.22;5128695;27;40997;-78
2022/03/25 06:32:45;;;;;;;18.50;11.07;;;;;;;5.50;54.62;99951.41;5136316;27;41724;-74
2022/03/25 06:35:14;;;;;;;21.10;12.03;;;;;;;5.73;54.31;99955.19;5120237;27;43270;-81
2022/03/25 06:37:42;;;;;;;19.07;11.53;;;;;;;5.91;54.62;99948.66;5115517;27;42665;-80
2022/03/25 06:40:11;;;;;;;18.10;11.63;;;;;;;6.06;54.45;99958.72;5096629;27;39669;-77
2022/03/25 06:42:40;;;;;;;20.60;11.77;;;;;;;6.22;54.08;99963.59;5115668;27;41891;-80
2022/03/25 06:45:10;;;;;;;21.17;12.03;;;;;;;6.32;53.91;99944.00;5098008;27;42778;-84
2022/03/25 06:47:38;;;;;;;20.23;12.83;;;;;;;6.66;53.35;99960.59;5133415;27;43047;-77
2022/03/25 06:50:10;;;;;;;18.90;11.07;;;;;;;6.91;53.01;99968.63;5096999;27;42568;-76
2022/03/25 06:52:38;;;;;;;20.03;11.57;;;;;;;7.14;52.78;99963.53;5112185;27;42105;-75
2022/03/25 06:55:08;;;;;;;18.07;11.27;;;;;;;7.38;52.73;99967.16;5130276;27;44361;-79
2022/03/25 06:57:36;;;;;;;23.50;12.87;;;;;;;7.71;52.22;99972.25;5098348;27;41466;-82
2022/03/25 07:00:05;;;;;;;17.23;12.30;;;;;;;8.16;51.52;99978.59;5132695;27;41896;-76
2022/03/25 07:02:34;;;;;;;21.13;13.00;;;;;;;8.67;50.61;99980.31;5115117;27;41660;-76
2022/03/25 07:05:02;;;;;;;21.37;12.40;;;;;;;9.12;49.82;99987.47;5096412;27;44356;-80
2022/03/25 07:07:33;;;;;;;18.93;11.57;;;;;;;9.48;49.25;99986.00;5114938;27;42143;-74
2022/03/25 07:10:02;;;;;;;19.10;12.53;;;;;;;10.24;48.11;99993.44;5131378;27;42028;-79
2022/03/25 07:12:30;;;;;;;19.60;12.27;;;;;;;11.40;46.17;100006.72;5115055;27;42451;-77
2022/03/25 07:14:57;;;;;;;22.33;14.60;;;;;;;12.78;43.42;100020.13;5096887;27;41980;-79
2022/03/25 07:17:25;;;;;;;20.73;13.53;;;;;;;14.05;41.19;100032.59;5114630;27;41921;-80
2022/03/25 07:19:53;;;;;;;20.07;14.67;;;;;;;15.11;39.16;100050.19;5131252;27;40898;-80
2022/03/25 07:22:20;;;;;;;21.80;15.07;;;;;;;15.98;37.82;100048.16;5114480;27;40957;-75
2022/03/25 07:24:50;;;;;;;19.93;14.20;;;;;;;16.75;36.52;100055.44;5096692;27;44692;-77
2022/03/25 07:27:18;;;;;;;24.20;17.73;;;;;;;17.51;34.50;100067.94;5097396;27;42330;-79
2022/03/25 07:29:45;;;;;;;23.23;16.53;;;;;;;18.30;33.81;100068.31;5113903;27;40952;-78
2022/03/25 07:32:13;;;;;;;20.83;16.13;;;;;;;18.96;32.67;100082.97;5132660;27;42605;-78
2022/03/25 07:34:41;;;;;;;22.17;16.80;;;;;;;19.50;31.36;100094.91;5113494;27;43584;-81
2022/03/25 07:37:09;;;;;;;22.33;16.67;;;;;;;19.76;30.94;100082.91;5132251;27;43070;-77
2022/03/25 07:39:37;;;;;;;24.63;17.73;;;;;;;19.97;30.57;100099.13;5132494;27;42046;-79
2022/03/25 07:42:07;;;;;;;23.70;17.63;;;;;;;20.32;30.36;100096.22;5114460;27;42530;-78
2022/03/25 07:44:36;;;;;;;25.23;18.33;;;;;;;21.09;29.57;100097.72;5111273;27;41701;-78
2022/03/25 07:47:04;;;;;;;22.73;16.97;;;;;;;22.20;27.71;100105.88;5131883;27;43163;-79
2022/03/25 07:49:34;;;;;;;20.27;16.20;;;;;;;23.51;25.99;100098.97;5096224;27;41077;-79
2022/03/25 07:52:02;;;;;;;22.43;18.33;;;;;;;24.87;24.31;100087.13;5129355;27;42468;-78
2022/03/25 07:54:30;;;;;;;23.40;18.33;;;;;;;26.35;23.19;100123.94;5123571;27;43221;-79
2022/03/25 07:56:58;;;;;;;20.03;17.67;;;;;;;27.24;22.47;100128.59;5113555;27;41544;-79
2022/03/25 07:59:28;;;;;;;21.77;18.40;;;;;;;27.64;21.35;100135.03;5113193;27;41058;-78
2022/03/25 08:01:57;;;;;;;20.57;17.70;;;;;;;28.11;20.62;100144.03;5132461;27;41861;-81
2022/03/25 08:04:25;;;;;;;18.03;16.20;;;;;;;28.73;20.02;100135.03;5113858;27;41910;-79
2022/03/25 08:06:53;;;;;;;19.37;17.27;;;;;;;28.35;20.24;100139.53;5132239;27;42504;-82
2022/03/25 08:09:21;;;;;;;22.13;17.83;;;;;;;27.00;21.08;100139.50;5131768;27;41693;-77
2022/03/25 08:11:49;;;;;;;26.30;19.13;;;;;;;25.87;21.26;100127.31;5139437;27;41678;-82
2022/03/25 08:14:18;;;;;;;22.73;17.37;;;;;;;25.03;22.55;100127.09;5145169;27;42800;-77
2022/03/25 08:16:47;;;;;;;27.57;19.13;;;;;;;24.38;23.06;100117.47;5113187;27;42063;-77
2022/03/25 08:19:15;;;;;;;23.67;18.77;;;;;;;24.64;22.40;100126.53;5112517;27;40928;-82
2022/03/25 08:21:43;;;;;;;24.57;19.90;;;;;;;25.48;22.00;100126.03;5132225;27;41792;-80
2022/03/25 08:29:40;;;;;;;25.70;21.13;;;;;;;27.68;18.99;100147.28;5131822;27;40734;-75
2022/03/25 08:32:10;;;;;;;25.83;20.53;;;;;;;27.05;20.83;100139.84;5134398;27;42471;-83
2022/03/25 08:34:38;;;;;;;23.67;19.87;;;;;;;26.81;20.66;100133.38;5124001;27;44578;-77
2022/03/25 08:37:05;;;;;;;24.33;20.33;;;;;;;27.43;20.98;100132.84;5113503;27;42623;-80
2022/03/25 08:39:34;;;;;;;25.33;21.17;;;;;;;28.55;19.76;100141.63;5112341;27;41265;-79
2022/03/25 08:42:02;;;;;;;25.67;20.53;;;;;;;30.00;18.22;100155.03;5123139;27;41826;-77
2022/03/25 08:44:30;;;;;;;24.63;21.20;;;;;;;31.52;17.29;100151.19;5133446;27;42996;-79
2022/03/25 08:46:57;;;;;;;23.50;20.13;;;;;;;32.84;16.40;100162.84;5133685;27;40688;-80
2022/03/25 08:49:28;;;;;;;24.88;20.65;;;;;;;33.81;14.54;100160.34;5143636;27;41335;-78
2022/03/25 08:51:55;;;;;;;22.23;19.92;;;;;;;34.42;14.54;100162.69;5144614;27;41703;-77
2022/03/25 08:54:23;;;;;;;21.48;19.20;;;;;;;34.94;13.81;100171.75;5132884;27;43877;-80
2022/03/25 08:56:53;;;;;;;22.90;20.70;;;;;;;34.98;13.92;100156.47;5133819;27;42193;-78
2022/03/25 08:59:21;;;;;;;22.80;20.40;;;;;;;35.18;13.65;100162.66;5125855;27;41036;-79
2022/03/25 09:01:49;;;;;;;23.00;20.60;;;;;;;36.00;13.14;100169.75;5096172;27;40663;-78
2022/03/25 09:04:16;;;;;;;22.85;20.25;;;;;;;36.33;12.50;100172.19;5111772;27;41642;-80
2022/03/25 09:06:45;;;;;;;22.85;19.92;;;;;;;35.28;13.03;100162.19;5095362;27;41571;-82
2022/03/25 09:09:13;;;;;;;24.75;21.50;;;;;;;34.75;12.83;100161.66;5112401;27;41301;-87
2022/03/25 09:11:41;;;;;;;23.55;21.13;;;;;;;34.81;13.70;100156.16;5123213;27;40543;-80
2022/03/25 09:14:08;;;;;;;22.95;20.55;;;;;;;34.97;13.59;100149.28;5133114;27;43665;-80
2022/03/25 09:16:36;;;;;;;24.42;21.92;;;;;;;35.72;12.60;100157.56;5138775;27;42842;-82
2022/03/25 09:19:04;;;;;;;22.13;19.83;;;;;;;37.05;12.58;100163.94;5115953;27;41174;-80
2022/03/25 09:21:31;;;;;;;22.92;20.52;;;;;;;37.54;12.11;100159.97;5116440;27;41870;-77
2022/03/25 09:24:01;;;;;;;23.25;20.85;;;;;;;36.83;12.16;100154.53;5098987;27;43295;-86
2022/03/25 09:26:29;;;;;;;23.60;20.52;;;;;;;36.13;12.37;100154.13;5137210;27;43917;-82
2022/03/25 09:28:56;;;;;;;22.75;20.42;;;;;;;35.41;13.16;100140.03;5133359;27;41491;-82
2022/03/25 09:31:24;;;;;;;22.02;19.75;;;;;;;35.05;13.04;100145.41;5134529;27;41761;-79
2022/03/25 09:35:08;;;;;;;23.42;20.92;;;;;;;34.55;13.24;100154.38;5098255;27;43804;-83
2022/03/25 09:36:39;;;;;;;26.40;21.67;;;;;;;33.93;13.37;100149.53;5095298;28;41753;-76
2022/03/25 09:39:09;;;;;;;23.17;20.63;;;;;;;33.94;13.32;100150.38;5094593;28;42565;-80
2022/03/25 09:41:37;;;;;;;23.93;20.60;;;;;;;33.63;13.85;100140.88;5095426;28;42619;-74
2022/03/25 09:44:06;;;;;;;24.40;21.80;;;;;;;33.52;13.96;100138.78;5099083;27;41264;-75
2022/03/25 09:46:41;;;;;;;24.63;20.87;;;;;;;33.00;14.21;100129.50;5115426;27;42566;-79
2022/03/25 09:49:09;;;;;;;23.40;20.87;;;;;;;32.69;14.95;100142.94;5132170;27;40831;-79
2022/03/25 09:51:38;;;;;;;23.23;20.73;;;;;;;32.72;14.96;100139.81;5116548;27;40531;-80
2022/03/25 09:54:10;;;;;;;24.37;20.57;;;;;;;32.54;14.58;100150.47;5116534;27;43696;-77
2022/03/25 09:56:38;;;;;;;23.63;21.00;;;;;;;32.00;15.40;100132.13;5116146;27;42980;-78
2022/03/25 09:59:06;;;;;;;24.80;21.60;;;;;;;31.65;15.60;100134.84;5129381;27;41117;-80
2022/03/25 10:01:34;;;;;;;24.17;21.33;;;;;;;31.80;15.85;100133.88;5115782;27;43478;-80
2022/03/25 10:04:02;;;;;;;24.80;20.67;;;;;;;31.61;15.00;100128.06;5113995;27;42766;-81
2022/03/25 10:06:30;;;;;;;25.00;20.80;;;;;;;31.55;16.06;100138.97;5136485;27;42179;-79
2022/03/25 10:09:01;;;;;;;23.00;20.23;;;;;;;31.58;16.13;100128.47;5114813;27;40811;-82
2022/03/25 10:11:32;;;;;;;26.13;22.43;;;;;;;31.54;16.05;100129.91;5115350;27;41722;-78
2022/03/25 10:14:15;;;;;;;27.83;22.10;;;;;;;31.54;14.99;100143.59;5133682;27;43432;-78
2022/03/25 10:16:45;;;;;;;24.97;20.27;;;;;;;31.76;15.71;100137.06;5115067;27;42051;-79
2022/03/25 10:19:14;;;;;;;23.60;19.60;;;;;;;31.52;15.76;100129.28;5132716;27;41011;-78
2022/03/25 10:21:55;;;;;;;23.43;20.43;;;;;;;31.23;16.17;100127.59;5098522;27;40539;-79
2022/03/25 10:24:42;;;;;;;23.80;20.70;;;;;;;31.53;15.19;100141.09;5114665;27;42614;-81
2022/03/25 10:27:13;;;;;;;23.53;20.53;;;;;;;32.40;14.41;100144.94;5114971;27;44478;-84
2022/03/25 10:29:45;;;;;;;22.33;19.97;;;;;;;33.54;14.07;100142.19;5115168;27;40015;-80
2022/03/25 10:32:14;;;;;;;24.58;20.40;;;;;;;34.58;13.07;100150.34;5131586;27;42342;-79
2022/03/25 10:34:43;;;;;;;23.48;21.05;;;;;;;35.11;12.99;100155.53;5114188;27;41726;-76
2022/03/25 10:37:13;;;;;;;23.88;21.23;;;;;;;35.35;12.80;100156.63;5131582;27;42150;-76
2022/03/25 10:39:52;;;;;;;22.63;20.20;;;;;;;35.29;12.74;100145.44;5132892;27;41068;-78
2022/03/25 10:42:21;;;;;;;23.35;20.67;;;;;;;35.43;12.35;100153.59;5114438;27;42898;-82
2022/03/25 10:44:50;;;;;;;23.65;20.63;;;;;;;34.91;13.49;100117.13;5096836;27;41962;-79
2022/03/25 10:47:26;;;;;;;23.63;20.67;;;;;;;35.32;13.23;100141.41;5114836;27;42382;-80
2022/03/25 10:49:55;;;;;;;24.48;21.27;;;;;;;35.92;13.13;100141.66;5113833;27;40533;-79
2022/03/25 10:52:30;;;;;;;24.27;21.63;;;;;;;36.09;12.15;100158.44;5133059;27;42060;-82
2022/03/25 10:55:19;;;;;;;23.20;20.70;;;;;;;36.64;12.03;100140.75;5131156;27;43018;-82
2022/03/25 10:57:53;;;;;;;23.20;20.67;;;;;;;37.52;11.93;100152.97;5111797;27;42486;-77
2022/03/25 11:00:22;;;;;;;24.98;22.27;;;;;;;37.92;11.12;100131.81;5113442;27;41840;-84
2022/03/25 11:02:49;;;;;;;23.88;21.38;;;;;;;38.78;10.39;100147.47;5114564;27;42747;-81
2022/03/25 11:05:18;;;;;;;21.92;19.65;;;;;;;39.63;10.02;100148.38;5132169;27;42892;-79
2022/03/25 11:07:47;;;;;;;22.48;20.08;;;;;;;40.36;9.74;100152.75;5132867;27;42232;-76
2022/03/25 11:10:17;;;;;;;21.98;19.77;;;;;;;41.17;9.35;100156.41;5112819;27;41114;-77
2022/03/25 11:12:48;;;;;;;21.70;19.58;;;;;;;41.50;8.69;100147.78;5113983;27;40803;-79
2022/03/25 11:15:19;;;;;;;22.52;20.02;;;;;;;40.93;8.87;100146.72;5130648;27;42811;-78
2022/03/25 11:17:48;;;;;;;22.00;19.88;;;;;;;40.10;9.85;100149.63;5129254;27;43038;-78
2022/03/25 11:20:16;;;;;;;21.75;19.55;;;;;;;39.93;9.34;100148.00;5131999;27;41143;-88
2022/03/25 11:22:47;;;;;;;22.48;20.20;;;;;;;40.13;9.64;100149.09;5114406;27;41835;-83
2022/03/25 11:25:21;;;;;;;23.23;20.90;;;;;;;41.00;9.34;100136.22;5132096;27;42220;-78
2022/03/25 11:27:54;;;;;;;21.35;19.25;;;;;;;41.74;9.07;100136.25;5113597;27;44017;-88
2022/03/25 11:30:23;;;;;;;20.73;18.52;;;;;;;42.56;8.88;100139.16;5114314;27;40789;-85
2022/03/25 11:33:04;;;;;;;20.40;18.30;;;;;;;43.31;8.10;100106.06;5115469;27;41520;-81
2022/03/25 11:35:33;;;;;;;20.90;18.73;;;;;;;43.85;7.79;100127.75;5096426;27;45075;-82